Carter, South Dakota
Current Conditions -  °F | °C
As of 9:53 AM on Thursday 29 Jan 2015 (Local Time) from KICR Reporting Station
Broken Clouds Broken Clouds  
Wind Chill: 26°   Ceiling: 3400
Heat Index: 37°   Visibility: 10mi
Dew Point: 23°   Wind: 23mph
Humidity: 57%   Direction: 320°NW
Pressure: 30.45"   Gusts: 31mph
Location:  43.39°N, 100.2°W
Report Text: KICR 291553Z AUTO 32020G27KT 10SM BKN034 03/M05 A3045 RMK AO2 PK WND 32027/1553 SLP328 T00281050
Loading
Personal Weather Stations






























Interactive Weather Map New forecast layout! Learn more

10-Day Weather Forecast

Advertisements
Track Severe Weather on mobile